Time,TemperatureF,DewpointF,PressureIn,WindDirection,WindDirectionDegrees,WindSpeedMPH,WindSpeedGustMPH,Humidity,HourlyPrecipIn,Conditions,Clouds,dailyrainin,SoftwareType,DateUTC
2013-09-30 00:02:00,46.0,34.0,29.58,SSE,150,8.0,-999.0,61,-99.99,,,-99.99,,2013-09-30 06:02:00,
2013-09-30 00:21:00,46.0,34.0,29.58,SE,130,7.0,-999.0,61,-99.99,,,-99.99,,2013-09-30 06:21:00,
2013-09-30 00:42:00,45.0,34.0,29.58,North,0,0.0,-999.0,65,-99.99,,,-99.99,,2013-09-30 06:42:00,
2013-09-30 01:21:00,45.0,34.0,29.56,SSE,160,8.0,-999.0,65,-99.99,,,-99.99,,2013-09-30 07:21:00,
2013-09-30 01:42:00,46.0,34.0,29.55,South,180,6.0,-999.0,61,-99.99,,,-99.99,,2013-09-30 07:42:00,
2013-09-30 01:52:00,46.0,36.0,29.54,South,170,10.0,16.0,65,-99.99,,,-99.99,,2013-09-30 07:52:00,
2013-09-30 02:02:00,46.0,36.0,29.54,South,170,10.0,16.0,65,-99.99,,,-99.99,,2013-09-30 08:02:00,
2013-09-30 02:22:00,46.0,34.0,29.54,South,170,8.0,-999.0,61,-99.99,,,-99.99,,2013-09-30 08:22:00,
2013-09-30 02:42:00,46.0,34.0,29.53,SE,140,8.0,-999.0,61,-99.99,,,-99.99,,2013-09-30 08:42:00,
2013-09-30 03:11:00,48.0,36.0,29.52,SSE,150,7.0,-999.0,61,-99.99,,,-99.99,,2013-09-30 09:11:00,
2013-09-30 03:22:00,48.0,36.0,29.52,SSE,150,7.0,-999.0,61,-99.99,,,-99.99,,2013-09-30 09:22:00,
2013-09-30 03:42:00,48.0,34.0,29.49,SSE,160,13.0,17.0,57,-99.99,,,-99.99,,2013-09-30 09:42:00,
2013-09-30 04:13:00,48.0,34.0,29.47,ESE,120,9.0,-999.0,57,-99.99,,,-99.99,,2013-09-30 10:13:00,
2013-09-30 04:22:00,48.0,34.0,29.47,ESE,120,9.0,-999.0,57,-99.99,,,-99.99,,2013-09-30 10:22:00,
2013-09-30 04:43:00,48.0,36.0,29.46,SSE,160,12.0,20.0,61,-99.99,,,-99.99,,2013-09-30 10:43:00,
2013-09-30 04:53:00,52.0,36.0,29.46,SSE,150,12.0,21.0,53,-99.99,,,-99.99,,2013-09-30 10:53:00,
2013-09-30 05:02:00,52.0,36.0,29.46,SSE,150,12.0,21.0,53,-99.99,,,-99.99,,2013-09-30 11:02:00,
2013-09-30 05:43:00,52.0,37.0,29.45,SSE,150,9.0,-999.0,57,-99.99,,,-99.99,,2013-09-30 11:43:00,
2013-09-30 06:22:00,46.0,36.0,29.45,ESE,110,5.0,-999.0,65,-99.99,,,-99.99,,2013-09-30 12:22:00,
2013-09-30 06:42:00,48.0,37.0,29.47,ESE,110,5.0,-999.0,66,-99.99,,,-99.99,,2013-09-30 12:42:00,
2013-09-30 06:52:00,48.0,37.0,29.48,SE,140,10.0,-999.0,66,-99.99,,,-99.99,,2013-09-30 12:52:00,
2013-09-30 07:01:00,48.0,37.0,29.48,SE,140,10.0,-999.0,66,-99.99,,,-99.99,,2013-09-30 13:01:00,
2013-09-30 07:22:00,50.0,37.0,29.47,SE,130,8.0,-999.0,61,-99.99,,,-99.99,,2013-09-30 13:22:00,
2013-09-30 07:42:00,52.0,39.0,29.47,North,0,0.0,-999.0,61,-99.99,,,-99.99,,2013-09-30 13:42:00,
2013-09-30 07:52:00,50.0,39.0,29.49,SSE,160,8.0,-999.0,66,-99.99,,,-99.99,,2013-09-30 13:52:00,
2013-09-30 08:01:00,50.0,39.0,29.49,SSE,160,8.0,-999.0,66,-99.99,,,-99.99,,2013-09-30 14:01:00,
2013-09-30 08:11:00,50.0,39.0,29.49,SSE,160,8.0,-999.0,66,-99.99,,,-99.99,,2013-09-30 14:11:00,
2013-09-30 08:22:00,50.0,39.0,29.49,SSE,160,8.0,-999.0,66,-99.99,,,-99.99,,2013-09-30 14:22:00,
2013-09-30 08:42:00,52.0,34.0,29.49,South,180,24.0,33.0,50,-99.99,,,-99.99,,2013-09-30 14:42:00,
2013-09-30 08:53:00,52.0,34.0,29.47,South,180,16.0,32.0,50,-99.99,,,-99.99,,2013-09-30 14:53:00,
2013-09-30 09:02:00,52.0,34.0,29.47,South,180,16.0,32.0,50,-99.99,,,-99.99,,2013-09-30 15:02:00,
2013-09-30 09:11:00,52.0,34.0,29.47,South,180,16.0,32.0,50,-99.99,,,-99.99,,2013-09-30 15:11:00,
2013-09-30 09:22:00,52.0,34.0,29.47,South,180,16.0,32.0,50,-99.99,,,-99.99,,2013-09-30 15:22:00,
2013-09-30 09:45:00,52.0,30.0,29.51,SSW,210,13.0,21.0,43,-99.99,,,-99.99,,2013-09-30 15:45:00,
2013-09-30 10:14:00,54.0,34.0,29.53,South,180,9.0,-999.0,46,-99.99,,,-99.99,,2013-09-30 16:14:00,
2013-09-30 10:24:00,54.0,34.0,29.53,South,180,9.0,-999.0,46,-99.99,,,-99.99,,2013-09-30 16:24:00,
2013-09-30 10:44:00,55.0,27.0,29.52,SSW,200,21.0,28.0,32,-99.99,,,-99.99,,2013-09-30 16:44:00,
2013-09-30 10:53:00,52.0,23.0,29.53,SSW,210,28.0,38.0,32,-99.99,,,-99.99,,2013-09-30 16:53:00,
2013-09-30 11:03:00,52.0,23.0,29.53,SSW,210,28.0,38.0,32,-99.99,,,-99.99,,2013-09-30 17:03:00,
2013-09-30 11:12:00,52.0,23.0,29.53,SSW,210,28.0,38.0,32,-99.99,,,-99.99,,2013-09-30 17:12:00,
2013-09-30 11:22:00,52.0,23.0,29.53,SSW,210,28.0,38.0,32,-99.99,,,-99.99,,2013-09-30 17:22:00,
2013-09-30 11:43:00,55.0,23.0,29.55,SSW,210,31.0,50.0,28,-99.99,,,-99.99,,2013-09-30 17:43:00,
2013-09-30 12:12:00,55.0,21.0,29.55,SW,220,29.0,43.0,26,-99.99,,,-99.99,,2013-09-30 18:12:00,
2013-09-30 12:22:00,55.0,21.0,29.55,SW,220,29.0,43.0,26,-99.99,,,-99.99,,2013-09-30 18:22:00,
2013-09-30 12:42:00,55.0,21.0,29.56,SW,220,32.0,45.0,26,-99.99,,,-99.99,,2013-09-30 18:42:00,
2013-09-30 12:53:00,55.0,21.0,29.57,SW,220,38.0,51.0,26,-99.99,,,-99.99,,2013-09-30 18:53:00,
2013-09-30 13:02:00,55.0,21.0,29.57,SW,220,38.0,51.0,26,-99.99,,,-99.99,,2013-09-30 19:02:00,
2013-09-30 13:22:00,55.0,21.0,29.57,SSW,210,32.0,50.0,26,-99.99,,,-99.99,,2013-09-30 19:22:00,
2013-09-30 13:42:00,55.0,21.0,29.54,SSW,210,38.0,51.0,26,-99.99,,,-99.99,,2013-09-30 19:42:00,
2013-09-30 13:53:00,55.0,21.0,29.55,SSW,210,36.0,58.0,26,-99.99,,,-99.99,,2013-09-30 19:53:00,
2013-09-30 14:02:00,55.0,21.0,29.55,SSW,210,36.0,58.0,26,-99.99,,,-99.99,,2013-09-30 20:02:00,
2013-09-30 14:23:00,57.0,23.0,29.54,SSW,210,37.0,55.0,26,-99.99,,,-99.99,,2013-09-30 20:23:00,
2013-09-30 14:43:00,57.0,25.0,29.53,SW,220,35.0,61.0,28,-99.99,,,-99.99,,2013-09-30 20:43:00,
2013-09-30 14:52:00,55.0,25.0,29.51,SSW,210,46.0,60.0,30,-99.99,,,-99.99,,2013-09-30 20:52:00,
2013-09-30 15:02:00,55.0,25.0,29.51,SSW,210,46.0,60.0,30,-99.99,,,-99.99,,2013-09-30 21:02:00,
2013-09-30 15:11:00,55.0,25.0,29.51,SSW,210,46.0,60.0,30,-99.99,,,-99.99,,2013-09-30 21:11:00,
2013-09-30 15:22:00,55.0,25.0,29.51,SSW,210,46.0,60.0,30,-99.99,,,-99.99,,2013-09-30 21:22:00,
2013-09-30 15:44:00,55.0,28.0,29.54,SSW,210,41.0,55.0,35,-99.99,,,-99.99,,2013-09-30 21:44:00,
2013-09-30 15:54:00,54.0,30.0,29.55,SW,220,38.0,58.0,40,-99.99,,,-99.99,,2013-09-30 21:54:00,
2013-09-30 16:03:00,54.0,30.0,29.55,SW,220,38.0,58.0,40,-99.99,,,-99.99,,2013-09-30 22:03:00,
2013-09-30 16:13:00,54.0,30.0,29.55,SW,220,38.0,58.0,40,-99.99,,,-99.99,,2013-09-30 22:13:00,
2013-09-30 16:23:00,54.0,30.0,29.55,SW,220,38.0,58.0,40,-99.99,,,-99.99,,2013-09-30 22:23:00,
2013-09-30 16:44:00,54.0,30.0,29.57,SW,220,33.0,58.0,40,-99.99,,,-99.99,,2013-09-30 22:44:00,
2013-09-30 17:23:00,52.0,32.0,29.58,SSW,210,41.0,54.0,46,-99.99,,,-99.99,,2013-09-30 23:23:00,
2013-09-30 17:43:00,52.0,32.0,29.61,SSW,210,29.0,48.0,46,-99.99,,,-99.99,,2013-09-30 23:43:00,
2013-09-30 18:22:00,52.0,32.0,29.62,SSW,210,35.0,48.0,46,-99.99,,,-99.99,,2013-10-01 00:22:00,
2013-09-30 18:43:00,50.0,32.0,29.64,SSW,200,31.0,40.0,49,-99.99,,,-99.99,,2013-10-01 00:43:00,
2013-09-30 18:52:00,50.0,32.0,29.64,SSW,200,31.0,40.0,49,-99.99,,,-99.99,,2013-10-01 00:52:00,
2013-09-30 19:02:00,50.0,32.0,29.64,SSW,200,31.0,40.0,49,-99.99,,,-99.99,,2013-10-01 01:02:00,
2013-09-30 19:21:00,46.0,30.0,29.65,SSW,210,22.0,31.0,52,-99.99,,,-99.99,,2013-10-01 01:21:00,
2013-09-30 19:42:00,48.0,30.0,29.66,SW,220,29.0,37.0,49,-99.99,,,-99.99,,2013-10-01 01:42:00,
2013-09-30 19:52:00,46.0,34.0,29.66,SSW,210,30.0,45.0,61,-99.99,,,-99.99,,2013-10-01 01:52:00,
2013-09-30 20:02:00,46.0,34.0,29.66,SSW,210,30.0,45.0,61,-99.99,,,-99.99,,2013-10-01 02:02:00,
2013-09-30 20:12:00,46.0,34.0,29.66,SSW,210,30.0,45.0,61,-99.99,,,-99.99,,2013-10-01 02:12:00,
2013-09-30 20:22:00,46.0,34.0,29.66,SSW,210,30.0,45.0,61,-99.99,,,-99.99,,2013-10-01 02:22:00,
2013-09-30 20:43:00,45.0,30.0,29.68,SSW,200,17.0,25.0,56,-99.99,,,-99.99,,2013-10-01 02:43:00,
2013-09-30 20:52:00,46.0,30.0,29.68,SSW,210,24.0,39.0,52,-99.99,,,-99.99,,2013-10-01 02:52:00,
2013-09-30 21:02:00,46.0,30.0,29.68,SSW,210,24.0,39.0,52,-99.99,,,-99.99,,2013-10-01 03:02:00,
2013-09-30 21:12:00,46.0,30.0,29.68,SSW,210,24.0,39.0,52,-99.99,,,-99.99,,2013-10-01 03:12:00,
2013-09-30 21:22:00,46.0,30.0,29.68,SSW,210,24.0,39.0,52,-99.99,,,-99.99,,2013-10-01 03:22:00,
2013-09-30 21:44:00,46.0,30.0,29.70,SSW,210,20.0,30.0,52,-99.99,,,-99.99,,2013-10-01 03:44:00,
2013-09-30 21:55:00,46.0,30.0,29.71,SW,220,20.0,35.0,52,-99.99,,,-99.99,,2013-10-01 03:55:00,
2013-09-30 22:04:00,46.0,30.0,29.71,SW,220,20.0,35.0,52,-99.99,,,-99.99,,2013-10-01 04:04:00,
2013-09-30 22:14:00,46.0,30.0,29.71,SW,220,20.0,35.0,52,-99.99,,,-99.99,,2013-10-01 04:14:00,
2013-09-30 22:24:00,46.0,30.0,29.71,SW,220,20.0,35.0,52,-99.99,,,-99.99,,2013-10-01 04:24:00,